sensor_id;sensor_type;location;lat;lon;timestamp;pressure;altitude;pressure_sealevel;temperature;humidity
12897;BME280;6516;35.028;32.372;2023-02-23T00:01:41;100184.41;;;9.25;100.00
12897;BME280;6516;35.028;32.372;2023-02-23T00:04:09;100183.59;;;9.20;100.00
12897;BME280;6516;35.028;32.372;2023-02-23T00:06:38;100172.91;;;9.32;100.00
12897;BME280;6516;35.028;32.372;2023-02-23T00:09:07;100180.63;;;9.46;100.00
12897;BME280;6516;35.028;32.372;2023-02-23T00:11:47;100174.47;;;9.48;100.00
12897;BME280;6516;35.028;32.372;2023-02-23T00:14:15;100169.28;;;9.42;100.00
12897;BME280;6516;35.028;32.372;2023-02-23T00:16:42;100169.34;;;9.39;100.00
12897;BME280;6516;35.028;32.372;2023-02-23T00:19:11;100165.84;;;9.36;100.00
12897;BME280;6516;35.028;32.372;2023-02-23T00:21:41;100164.09;;;9.38;100.00
12897;BME280;6516;35.028;32.372;2023-02-23T00:24:12;100167.50;;;9.47;100.00
12897;BME280;6516;35.028;32.372;2023-02-23T00:26:40;100162.06;;;9.56;100.00
12897;BME280;6516;35.028;32.372;2023-02-23T00:29:12;100156.69;;;9.67;100.00
12897;BME280;6516;35.028;32.372;2023-02-23T00:31:42;100153.09;;;9.74;100.00
12897;BME280;6516;35.028;32.372;2023-02-23T00:34:11;100147.88;;;9.69;100.00
12897;BME280;6516;35.028;32.372;2023-02-23T00:36:41;100143.41;;;9.74;100.00
12897;BME280;6516;35.028;32.372;2023-02-23T00:39:11;100140.75;;;9.77;100.00
12897;BME280;6516;35.028;32.372;2023-02-23T00:41:46;100138.88;;;9.87;100.00
12897;BME280;6516;35.028;32.372;2023-02-23T00:44:14;100128.28;;;9.90;100.00
12897;BME280;6516;35.028;32.372;2023-02-23T00:46:43;100130.84;;;9.96;100.00
12897;BME280;6516;35.028;32.372;2023-02-23T00:49:14;100121.03;;;10.04;100.00
12897;BME280;6516;35.028;32.372;2023-02-23T00:51:43;100117.41;;;10.15;100.00
12897;BME280;6516;35.028;32.372;2023-02-23T00:54:12;100113.94;;;10.12;100.00
12897;BME280;6516;35.028;32.372;2023-02-23T00:56:40;100108.13;;;9.90;100.00
12897;BME280;6516;35.028;32.372;2023-02-23T00:59:08;100115.13;;;9.91;100.00
12897;BME280;6516;35.028;32.372;2023-02-23T01:01:37;100109.84;;;9.93;100.00
12897;BME280;6516;35.028;32.372;2023-02-23T01:04:06;100112.38;;;9.99;100.00
12897;BME280;6516;35.028;32.372;2023-02-23T01:06:35;100103.69;;;9.94;100.00
12897;BME280;6516;35.028;32.372;2023-02-23T01:09:07;100104.06;;;9.71;98.53
12897;BME280;6516;35.028;32.372;2023-02-23T01:11:59;100102.63;;;9.49;98.90
12897;BME280;6516;35.028;32.372;2023-02-23T01:14:27;100099.97;;;9.52;100.00
12897;BME280;6516;35.028;32.372;2023-02-23T01:16:55;100094.66;;;9.54;100.00
12897;BME280;6516;35.028;32.372;2023-02-23T01:19:23;100092.00;;;9.57;100.00
12897;BME280;6516;35.028;32.372;2023-02-23T01:21:51;100096.53;;;9.47;100.00
12897;BME280;6516;35.028;32.372;2023-02-23T01:24:20;100098.44;;;9.36;100.00
12897;BME280;6516;35.028;32.372;2023-02-23T01:26:48;100100.16;;;9.39;100.00
12897;BME280;6516;35.028;32.372;2023-02-23T01:29:17;100098.44;;;9.35;100.00
12897;BME280;6516;35.028;32.372;2023-02-23T01:31:46;100098.28;;;9.48;100.00
12897;BME280;6516;35.028;32.372;2023-02-23T01:34:17;100098.28;;;9.48;100.00
12897;BME280;6516;35.028;32.372;2023-02-23T01:36:46;100100.97;;;9.42;100.00
12897;BME280;6516;35.028;32.372;2023-02-23T01:39:15;100096.59;;;9.41;100.00
12897;BME280;6516;35.028;32.372;2023-02-23T01:41:46;100099.13;;;9.49;100.00
12897;BME280;6516;35.028;32.372;2023-02-23T01:47:47;100094.72;;;9.51;100.00
12897;BME280;6516;35.028;32.372;2023-02-23T01:50:16;100100.25;;;9.31;100.00
12897;BME280;6516;35.028;32.372;2023-02-23T01:52:46;100094.91;;;9.37;100.00
12897;BME280;6516;35.028;32.372;2023-02-23T01:55:18;100100.88;;;9.50;100.00
12897;BME280;6516;35.028;32.372;2023-02-23T01:57:53;100092.91;;;9.54;100.00
12897;BME280;6516;35.028;32.372;2023-02-23T02:00:25;100100.03;;;9.46;100.00
12897;BME280;6516;35.028;32.372;2023-02-23T02:02:55;100093.19;;;9.36;100.00
12897;BME280;6516;35.028;32.372;2023-02-23T02:05:24;100089.72;;;9.34;100.00
12897;BME280;6516;35.028;32.372;2023-02-23T02:07:53;100086.03;;;9.47;100.00
12897;BME280;6516;35.028;32.372;2023-02-23T02:10:25;100094.84;;;9.43;100.00
12897;BME280;6516;35.028;32.372;2023-02-23T02:13:16;100094.97;;;9.34;100.00
12897;BME280;6516;35.028;32.372;2023-02-23T02:18:53;100087.34;;;9.16;100.00
12897;BME280;6516;35.028;32.372;2023-02-23T02:31:54;100081.31;;;9.70;100.00
12897;BME280;6516;35.028;32.372;2023-02-23T02:35:04;100079.41;;;9.78;100.00
12897;BME280;6516;35.028;32.372;2023-02-23T02:38:02;100074.88;;;9.86;100.00
12897;BME280;6516;35.028;32.372;2023-02-23T02:40:41;100076.88;;;9.72;100.00
12897;BME280;6516;35.028;32.372;2023-02-23T02:43:25;100083.94;;;9.69;100.00
12897;BME280;6516;35.028;32.372;2023-02-23T02:46:03;100083.03;;;9.71;100.00
12897;BME280;6516;35.028;32.372;2023-02-23T02:48:39;100080.25;;;9.80;100.00
12897;BME280;6516;35.028;32.372;2023-02-23T02:51:19;100083.56;;;9.91;100.00
12897;BME280;6516;35.028;32.372;2023-02-23T02:53:57;100081.72;;;9.96;100.00
12897;BME280;6516;35.028;32.372;2023-02-23T02:56:32;100091.28;;;10.03;100.00
12897;BME280;6516;35.028;32.372;2023-02-23T02:59:06;100095.53;;;10.10;100.00
12897;BME280;6516;35.028;32.372;2023-02-23T03:01:55;100084.88;;;10.19;100.00
12897;BME280;6516;35.028;32.372;2023-02-23T03:04:41;100088.94;;;10.38;100.00
12897;BME280;6516;35.028;32.372;2023-02-23T03:07:29;100092.22;;;10.51;100.00
12897;BME280;6516;35.028;32.372;2023-02-23T03:10:27;100092.06;;;10.58;100.00
12897;BME280;6516;35.028;32.372;2023-02-23T03:13:23;100092.81;;;10.65;100.00
12897;BME280;6516;35.028;32.372;2023-02-23T03:16:24;100086.59;;;10.69;100.00
12897;BME280;6516;35.028;32.372;2023-02-23T03:19:18;100089.09;;;10.75;100.00
12897;BME280;6516;35.028;32.372;2023-02-23T03:22:09;100086.50;;;10.72;100.00
12897;BME280;6516;35.028;32.372;2023-02-23T03:25:04;100084.72;;;10.75;100.00
12897;BME280;6516;35.028;32.372;2023-02-23T03:27:55;100084.78;;;10.71;100.00
12897;BME280;6516;35.028;32.372;2023-02-23T03:30:50;100092.75;;;10.68;100.00
12897;BME280;6516;35.028;32.372;2023-02-23T03:33:43;100091.06;;;10.65;100.00
12897;BME280;6516;35.028;32.372;2023-02-23T03:36:32;100087.34;;;10.75;100.00
12897;BME280;6516;35.028;32.372;2023-02-23T03:39:24;100088.16;;;10.77;99.76
12897;BME280;6516;35.028;32.372;2023-02-23T03:42:14;100092.34;;;10.87;99.58
12897;BME280;6516;35.028;32.372;2023-02-23T03:45:06;100097.50;;;10.93;99.01
12897;BME280;6516;35.028;32.372;2023-02-23T03:47:54;100091.31;;;10.96;98.41
12897;BME280;6516;35.028;32.372;2023-02-23T03:50:45;100101.84;;;10.96;99.10
12897;BME280;6516;35.028;32.372;2023-02-23T03:53:38;100106.25;;;10.95;99.05
12897;BME280;6516;35.028;32.372;2023-02-23T03:56:30;100101.66;;;11.05;99.27
12897;BME280;6516;35.028;32.372;2023-02-23T03:59:19;100098.09;;;11.07;98.95
12897;BME280;6516;35.028;32.372;2023-02-23T04:02:10;100103.19;;;11.15;98.66
12897;BME280;6516;35.028;32.372;2023-02-23T04:05:00;100103.09;;;11.19;98.48
12897;BME280;6516;35.028;32.372;2023-02-23T04:07:46;100098.69;;;11.22;97.95
12897;BME280;6516;35.028;32.372;2023-02-23T04:10:34;100100.66;;;11.10;97.28
12897;BME280;6516;35.028;32.372;2023-02-23T04:13:23;100111.19;;;11.10;97.80
12897;BME280;6516;35.028;32.372;2023-02-23T04:15:53;100104.13;;;11.13;97.89
12897;BME280;6516;35.028;32.372;2023-02-23T04:18:25;100112.81;;;11.18;97.40
12897;BME280;6516;35.028;32.372;2023-02-23T04:20:54;100113.75;;;11.15;96.07
12897;BME280;6516;35.028;32.372;2023-02-23T04:23:23;100108.09;;;10.90;96.72
12897;BME280;6516;35.028;32.372;2023-02-23T04:25:52;100107.31;;;10.87;96.71
12897;BME280;6516;35.028;32.372;2023-02-23T04:28:22;100113.72;;;10.72;97.37
12897;BME280;6516;35.028;32.372;2023-02-23T04:30:50;100119.88;;;10.73;97.55
12897;BME280;6516;35.028;32.372;2023-02-23T04:33:19;100116.47;;;10.66;98.67
12897;BME280;6516;35.028;32.372;2023-02-23T04:35:51;100121.91;;;10.59;99.19
12897;BME280;6516;35.028;32.372;2023-02-23T04:38:21;100116.50;;;10.65;99.92
12897;BME280;6516;35.028;32.372;2023-02-23T04:40:49;100118.00;;;10.78;100.00
12897;BME280;6516;35.028;32.372;2023-02-23T04:43:17;100117.03;;;10.83;99.95
12897;BME280;6516;35.028;32.372;2023-02-23T04:45:45;100116.03;;;10.89;99.59
12897;BME280;6516;35.028;32.372;2023-02-23T04:48:13;100111.47;;;10.98;99.31
12897;BME280;6516;35.028;32.372;2023-02-23T04:50:40;100115.75;;;11.04;99.00
12897;BME280;6516;35.028;32.372;2023-02-23T04:53:09;100116.41;;;11.13;98.76
12897;BME280;6516;35.028;32.372;2023-02-23T04:55:37;100117.25;;;11.16;98.68
12897;BME280;6516;35.028;32.372;2023-02-23T04:58:05;100127.63;;;11.23;98.50
12897;BME280;6516;35.028;32.372;2023-02-23T05:00:33;100122.38;;;11.22;97.96
12897;BME280;6516;35.028;32.372;2023-02-23T05:03:00;100126.69;;;11.26;97.73
12897;BME280;6516;35.028;32.372;2023-02-23T05:05:28;100130.28;;;11.22;97.48
12897;BME280;6516;35.028;32.372;2023-02-23T05:07:56;100130.34;;;11.18;97.25
12897;BME280;6516;35.028;32.372;2023-02-23T05:10:25;100130.44;;;11.16;97.16
12897;BME280;6516;35.028;32.372;2023-02-23T05:12:53;100132.03;;;11.23;97.14
12897;BME280;6516;35.028;32.372;2023-02-23T05:15:21;100136.25;;;11.31;97.02
12897;BME280;6516;35.028;32.372;2023-02-23T05:17:49;100134.41;;;11.35;96.72
12897;BME280;6516;35.028;32.372;2023-02-23T05:20:16;100142.03;;;11.47;96.28
12897;BME280;6516;35.028;32.372;2023-02-23T05:22:44;100133.06;;;11.57;95.90
12897;BME280;6516;35.028;32.372;2023-02-23T05:25:12;100137.34;;;11.62;95.29
12897;BME280;6516;35.028;32.372;2023-02-23T05:27:41;100146.25;;;11.55;95.51
12897;BME280;6516;35.028;32.372;2023-02-23T05:30:10;100148.94;;;11.54;96.35
12897;BME280;6516;35.028;32.372;2023-02-23T05:32:38;100153.25;;;11.56;96.73
12897;BME280;6516;35.028;32.372;2023-02-23T05:35:06;100147.94;;;11.59;96.82
12897;BME280;6516;35.028;32.372;2023-02-23T05:37:35;100149.66;;;11.63;97.06
12897;BME280;6516;35.028;32.372;2023-02-23T05:40:03;100152.94;;;11.71;97.15
12897;BME280;6516;35.028;32.372;2023-02-23T05:42:31;100158.94;;;11.79;97.17
12897;BME280;6516;35.028;32.372;2023-02-23T05:45:01;100160.47;;;11.88;97.25
12897;BME280;6516;35.028;32.372;2023-02-23T05:47:30;100159.38;;;11.99;97.13
12897;BME280;6516;35.028;32.372;2023-02-23T05:50:00;100153.00;;;12.08;96.67
12897;BME280;6516;35.028;32.372;2023-02-23T05:52:27;100159.78;;;12.18;96.22
12897;BME280;6516;35.028;32.372;2023-02-23T05:54:55;100159.63;;;12.24;95.81
12897;BME280;6516;35.028;32.372;2023-02-23T05:57:23;100162.91;;;12.33;95.78
12897;BME280;6516;35.028;32.372;2023-02-23T05:59:50;100166.19;;;12.43;95.82
12897;BME280;6516;35.028;32.372;2023-02-23T06:02:20;100170.88;;;12.65;96.25
12897;BME280;6516;35.028;32.372;2023-02-23T06:04:47;100166.28;;;13.07;97.12
12897;BME280;6516;35.028;32.372;2023-02-23T06:07:15;100168.41;;;13.54;97.21
12897;BME280;6516;35.028;32.372;2023-02-23T06:09:43;100169.69;;;13.99;94.38
12897;BME280;6516;35.028;32.372;2023-02-23T06:12:11;100175.06;;;14.25;88.68
12897;BME280;6516;35.028;32.372;2023-02-23T06:14:38;100167.44;;;14.42;86.34
12897;BME280;6516;35.028;32.372;2023-02-23T06:17:06;100171.06;;;14.64;87.41
12897;BME280;6516;35.028;32.372;2023-02-23T06:19:35;100180.91;;;14.86;87.19
12897;BME280;6516;35.028;32.372;2023-02-23T06:22:03;100173.00;;;15.09;86.56
12897;BME280;6516;35.028;32.372;2023-02-23T06:24:31;100164.72;;;15.43;85.46
12897;BME280;6516;35.028;32.372;2023-02-23T06:26:59;100166.72;;;15.82;83.51
12897;BME280;6516;35.028;32.372;2023-02-23T06:29:27;100177.31;;;16.27;80.43
12897;BME280;6516;35.028;32.372;2023-02-23T06:31:54;100172.94;;;16.69;78.54
12897;BME280;6516;35.028;32.372;2023-02-23T06:34:22;100179.41;;;17.03;74.96
12897;BME280;6516;35.028;32.372;2023-02-23T06:36:52;100174.66;;;17.30;73.55
12897;BME280;6516;35.028;32.372;2023-02-23T06:39:19;100180.84;;;17.50;72.25
12897;BME280;6516;35.028;32.372;2023-02-23T06:41:47;100171.00;;;17.71;70.28
12897;BME280;6516;35.028;32.372;2023-02-23T06:44:15;100174.75;;;18.04;70.60
12897;BME280;6516;35.028;32.372;2023-02-23T06:46:43;100177.44;;;18.41;68.81
12897;BME280;6516;35.028;32.372;2023-02-23T06:49:11;100166.47;;;18.81;66.54
12897;BME280;6516;35.028;32.372;2023-02-23T06:51:38;100165.53;;;18.99;63.26
12897;BME280;6516;35.028;32.372;2023-02-23T06:54:09;100169.28;;;19.46;63.52
12897;BME280;6516;35.028;32.372;2023-02-23T06:56:36;100171.75;;;19.49;59.03
12897;BME280;6516;35.028;32.372;2023-02-23T06:59:04;100172.19;;;19.41;59.90
12897;BME280;6516;35.028;32.372;2023-02-23T07:01:32;100171.63;;;19.35;60.09
12897;BME280;6516;35.028;32.372;2023-02-23T07:03:59;100169.22;;;19.30;58.13
12897;BME280;6516;35.028;32.372;2023-02-23T07:06:27;100169.16;;;19.32;58.31
12897;BME280;6516;35.028;32.372;2023-02-23T07:08:56;100178.72;;;19.02;58.34
12897;BME280;6516;35.028;32.372;2023-02-23T07:11:26;100171.91;;;18.79;58.24
12897;BME280;6516;35.028;32.372;2023-02-23T07:13:56;100181.94;;;18.39;59.52
12897;BME280;6516;35.028;32.372;2023-02-23T07:16:24;100179.81;;;18.10;61.49
12897;BME280;6516;35.028;32.372;2023-02-23T07:18:52;100186.47;;;17.63;63.28
12897;BME280;6516;35.028;32.372;2023-02-23T07:21:20;100183.34;;;17.92;62.73
12897;BME280;6516;35.028;32.372;2023-02-23T07:23:48;100182.91;;;18.01;60.43
12897;BME280;6516;35.028;32.372;2023-02-23T07:26:16;100175.63;;;18.04;60.47
12897;BME280;6516;35.028;32.372;2023-02-23T07:28:45;100176.19;;;18.11;60.89
12897;BME280;6516;35.028;32.372;2023-02-23T07:31:13;100180.72;;;18.46;59.12
12897;BME280;6516;35.028;32.372;2023-02-23T07:33:41;100175.34;;;18.81;59.73
12897;BME280;6516;35.028;32.372;2023-02-23T07:36:10;100177.13;;;19.15;56.97
12897;BME280;6516;35.028;32.372;2023-02-23T07:38:38;100174.75;;;19.60;56.14
12897;BME280;6516;35.028;32.372;2023-02-23T07:41:06;100174.22;;;20.17;54.12
12897;BME280;6516;35.028;32.372;2023-02-23T07:43:34;100173.81;;;20.09;53.17
12897;BME280;6516;35.028;32.372;2023-02-23T07:46:04;100169.81;;;20.32;53.87
12897;BME280;6516;35.028;32.372;2023-02-23T07:48:32;100170.38;;;20.68;53.62
12897;BME280;6516;35.028;32.372;2023-02-23T07:50:59;100174.88;;;20.97;52.52
12897;BME280;6516;35.028;32.372;2023-02-23T07:53:27;100172.03;;;21.00;50.94
12897;BME280;6516;35.028;32.372;2023-02-23T07:55:55;100177.84;;;20.92;51.40
12897;BME280;6516;35.028;32.372;2023-02-23T07:58:23;100166.47;;;20.73;51.23
12897;BME280;6516;35.028;32.372;2023-02-23T08:00:51;100164.44;;;20.63;51.92
12897;BME280;6516;35.028;32.372;2023-02-23T08:03:20;100168.75;;;19.72;51.04
12897;BME280;6516;35.028;32.372;2023-02-23T08:05:48;100172.78;;;19.46;51.75
12897;BME280;6516;35.028;32.372;2023-02-23T08:08:16;100169.69;;;19.38;52.33
12897;BME280;6516;35.028;32.372;2023-02-23T08:10:44;100166.13;;;19.21;53.92
12897;BME280;6516;35.028;32.372;2023-02-23T08:13:12;100176.06;;;18.68;54.67
12897;BME280;6516;35.028;32.372;2023-02-23T08:15:40;100184.31;;;18.45;55.31
12897;BME280;6516;35.028;32.372;2023-02-23T08:18:08;100171.06;;;18.43;57.40
12897;BME280;6516;35.028;32.372;2023-02-23T08:20:38;100168.16;;;18.48;57.30
12897;BME280;6516;35.028;32.372;2023-02-23T08:23:05;100184.88;;;18.51;56.99
12897;BME280;6516;35.028;32.372;2023-02-23T08:25:34;100173.53;;;18.65;57.23
12897;BME280;6516;35.028;32.372;2023-02-23T08:28:02;100163.94;;;18.61;56.86
12897;BME280;6516;35.028;32.372;2023-02-23T08:30:32;100165.22;;;18.71;57.15
12897;BME280;6516;35.028;32.372;2023-02-23T08:33:00;100173.91;;;18.57;56.92
12897;BME280;6516;35.028;32.372;2023-02-23T08:35:27;100164.38;;;18.70;56.97
12897;BME280;6516;35.028;32.372;2023-02-23T08:37:57;100170.72;;;18.68;58.19
12897;BME280;6516;35.028;32.372;2023-02-23T08:40:25;100167.09;;;18.69;57.37
12897;BME280;6516;35.028;32.372;2023-02-23T08:42:53;100170.53;;;18.71;58.09
12897;BME280;6516;35.028;32.372;2023-02-23T08:45:21;100170.06;;;18.63;57.47
12897;BME280;6516;35.028;32.372;2023-02-23T08:47:49;100172.91;;;18.60;58.49
12897;BME280;6516;35.028;32.372;2023-02-23T08:50:16;100168.78;;;18.53;58.58
12897;BME280;6516;35.028;32.372;2023-02-23T08:52:44;100177.56;;;18.38;59.05
12897;BME280;6516;35.028;32.372;2023-02-23T08:55:14;100179.69;;;18.30;60.21
12897;BME280;6516;35.028;32.372;2023-02-23T08:57:43;100178.56;;;18.17;61.19
12897;BME280;6516;35.028;32.372;2023-02-23T09:00:12;100186.47;;;18.18;61.87
12897;BME280;6516;35.028;32.372;2023-02-23T09:02:42;100185.28;;;18.07;61.37
12897;BME280;6516;35.028;32.372;2023-02-23T09:05:12;100171.50;;;18.16;61.94
12897;BME280;6516;35.028;32.372;2023-02-23T09:07:41;100181.22;;;18.17;61.66
12897;BME280;6516;35.028;32.372;2023-02-23T09:10:13;100175.31;;;18.10;61.51
12897;BME280;6516;35.028;32.372;2023-02-23T09:12:42;100175.63;;;18.04;62.14
12897;BME280;6516;35.028;32.372;2023-02-23T09:15:10;100176.78;;;17.99;62.10
12897;BME280;6516;35.028;32.372;2023-02-23T09:17:38;100173.22;;;18.17;61.94
12897;BME280;6516;35.028;32.372;2023-02-23T09:20:10;100170.88;;;18.11;62.43
12897;BME280;6516;35.028;32.372;2023-02-23T09:22:41;100171.34;;;18.37;60.13
12897;BME280;6516;35.028;32.372;2023-02-23T09:25:10;100168.19;;;18.99;58.86
12897;BME280;6516;35.028;32.372;2023-02-23T09:27:44;100153.94;;;19.49;58.07
12897;BME280;6516;35.028;32.372;2023-02-23T09:30:13;100160.91;;;19.85;54.64
12897;BME280;6516;35.028;32.372;2023-02-23T09:32:43;100153.81;;;19.68;55.18
12897;BME280;6516;35.028;32.372;2023-02-23T09:35:11;100154.56;;;20.18;54.48
12897;BME280;6516;35.028;32.372;2023-02-23T09:37:42;100155.91;;;20.56;54.23
12897;BME280;6516;35.028;32.372;2023-02-23T09:40:14;100142.00;;;20.95;52.26
12897;BME280;6516;35.028;32.372;2023-02-23T09:42:55;100141.66;;;21.15;51.03
12897;BME280;6516;35.028;32.372;2023-02-23T09:45:32;100140.91;;;21.27;51.00
12897;BME280;6516;35.028;32.372;2023-02-23T09:48:09;100137.56;;;21.23;50.43
12897;BME280;6516;35.028;32.372;2023-02-23T09:50:43;100128.47;;;21.54;50.38
12897;BME280;6516;35.028;32.372;2023-02-23T09:53:25;100129.13;;;21.57;47.02
12897;BME280;6516;35.028;32.372;2023-02-23T09:55:57;100122.00;;;22.12;46.98
12897;BME280;6516;35.028;32.372;2023-02-23T09:58:28;100118.97;;;22.04;47.63
12897;BME280;6516;35.028;32.372;2023-02-23T10:01:20;100122.31;;;22.34;47.33
12897;BME280;6516;35.028;32.372;2023-02-23T10:04:05;100125.53;;;21.86;48.87
12897;BME280;6516;35.028;32.372;2023-02-23T10:06:35;100117.25;;;21.89;49.39
12897;BME280;6516;35.028;32.372;2023-02-23T10:09:13;100119.94;;;21.89;48.26
12897;BME280;6516;35.028;32.372;2023-02-23T10:11:50;100117.44;;;22.00;48.03
12897;BME280;6516;35.028;32.372;2023-02-23T10:14:37;100113.22;;;21.70;48.30
12897;BME280;6516;35.028;32.372;2023-02-23T10:17:24;100117.19;;;21.77;47.17
12897;BME280;6516;35.028;32.372;2023-02-23T10:20:05;100107.63;;;21.73;47.24
12897;BME280;6516;35.028;32.372;2023-02-23T10:22:41;100107.53;;;21.60;47.70
12897;BME280;6516;35.028;32.372;2023-02-23T10:25:12;100103.59;;;21.80;47.31
12897;BME280;6516;35.028;32.372;2023-02-23T10:27:44;100097.22;;;22.35;45.86
12897;BME280;6516;35.028;32.372;2023-02-23T10:30:20;100096.91;;;22.66;45.21
12897;BME280;6516;35.028;32.372;2023-02-23T10:32:53;100088.44;;;22.72;44.27
12897;BME280;6516;35.028;32.372;2023-02-23T10:35:27;100082.03;;;22.48;44.88
12897;BME280;6516;35.028;32.372;2023-02-23T10:37:58;100078.03;;;22.41;44.74
12897;BME280;6516;35.028;32.372;2023-02-23T10:40:29;100078.44;;;21.82;45.37
12897;BME280;6516;35.028;32.372;2023-02-23T10:42:59;100093.91;;;21.91;46.63
12897;BME280;6516;35.028;32.372;2023-02-23T10:45:29;100090.09;;;21.95;47.40
12897;BME280;6516;35.028;32.372;2023-02-23T10:48:13;100085.41;;;21.85;47.20
12897;BME280;6516;35.028;32.372;2023-02-23T10:50:44;100085.06;;;22.03;47.15
12897;BME280;6516;35.028;32.372;2023-02-23T10:53:16;100076.66;;;21.95;46.98
12897;BME280;6516;35.028;32.372;2023-02-23T10:55:59;100073.38;;;22.04;47.03
12897;BME280;6516;35.028;32.372;2023-02-23T10:58:30;100080.38;;;22.07;47.10
12897;BME280;6516;35.028;32.372;2023-02-23T11:01:01;100076.69;;;21.53;48.30
12897;BME280;6516;35.028;32.372;2023-02-23T11:03:34;100071.66;;;21.35;49.12
12897;BME280;6516;35.028;32.372;2023-02-23T11:06:04;100071.56;;;21.36;50.56
12897;BME280;6516;35.028;32.372;2023-02-23T11:08:34;100071.16;;;21.70;49.46
12897;BME280;6516;35.028;32.372;2023-02-23T11:11:06;100068.72;;;21.94;48.10
12897;BME280;6516;35.028;32.372;2023-02-23T11:13:45;100058.16;;;22.31;47.44
12897;BME280;6516;35.028;32.372;2023-02-23T11:16:16;100055.25;;;22.61;47.89
12897;BME280;6516;35.028;32.372;2023-02-23T11:18:50;100056.13;;;22.86;47.02
12897;BME280;6516;35.028;32.372;2023-02-23T11:21:26;100054.75;;;23.06;46.99
12897;BME280;6516;35.028;32.372;2023-02-23T11:24:01;100056.03;;;22.88;46.53
12897;BME280;6516;35.028;32.372;2023-02-23T11:26:37;100049.81;;;22.48;47.31
12897;BME280;6516;35.028;32.372;2023-02-23T11:29:14;100044.50;;;22.34;47.18
12897;BME280;6516;35.028;32.372;2023-02-23T11:31:49;100043.63;;;22.60;46.60
12897;BME280;6516;35.028;32.372;2023-02-23T11:34:27;100044.31;;;23.01;46.42
12897;BME280;6516;35.028;32.372;2023-02-23T11:36:59;100044.19;;;22.65;46.70
12897;BME280;6516;35.028;32.372;2023-02-23T11:39:29;100039.13;;;22.61;47.12
12897;BME280;6516;35.028;32.372;2023-02-23T11:42:15;100046.13;;;22.88;46.83
12897;BME280;6516;35.028;32.372;2023-02-23T11:44:49;100035.47;;;22.49;45.72
12897;BME280;6516;35.028;32.372;2023-02-23T11:47:21;100038.06;;;22.63;45.99
12897;BME280;6516;35.028;32.372;2023-02-23T11:49:50;100028.22;;;22.89;44.52
12897;BME280;6516;35.028;32.372;2023-02-23T11:52:21;100036.59;;;22.97;44.15
12897;BME280;6516;35.028;32.372;2023-02-23T11:54:54;100041.84;;;22.73;43.92
12897;BME280;6516;35.028;32.372;2023-02-23T11:57:25;100036.16;;;23.03;44.09
12897;BME280;6516;35.028;32.372;2023-02-23T11:59:55;100038.94;;;23.14;45.57
12897;BME280;6516;35.028;32.372;2023-02-23T12:02:27;100034.09;;;23.06;44.31
12897;BME280;6516;35.028;32.372;2023-02-23T12:05:04;100034.75;;;22.72;44.80
12897;BME280;6516;35.028;32.372;2023-02-23T12:07:37;100037.22;;;22.36;45.68
12897;BME280;6516;35.028;32.372;2023-02-23T12:10:14;100049.41;;;22.28;45.89
12897;BME280;6516;35.028;32.372;2023-02-23T12:12:53;100038.41;;;22.32;46.47
12897;BME280;6516;35.028;32.372;2023-02-23T12:15:39;100047.03;;;22.50;46.82
12897;BME280;6516;35.028;32.372;2023-02-23T12:18:31;100045.06;;;22.66;45.19
12897;BME280;6516;35.028;32.372;2023-02-23T12:21:15;100035.69;;;22.71;46.11
12897;BME280;6516;35.028;32.372;2023-02-23T12:23:52;100048.91;;;22.74;46.31
12897;BME280;6516;35.028;32.372;2023-02-23T12:26:27;100046.34;;;22.73;45.70
12897;BME280;6516;35.028;32.372;2023-02-23T12:28:59;100054.81;;;22.79;45.09
12897;BME280;6516;35.028;32.372;2023-02-23T12:31:36;100049.66;;;22.64;45.18
12897;BME280;6516;35.028;32.372;2023-02-23T12:34:12;100051.41;;;22.77;45.15
12897;BME280;6516;35.028;32.372;2023-02-23T12:36:47;100051.41;;;22.77;45.52
12897;BME280;6516;35.028;32.372;2023-02-23T12:39:24;100056.56;;;22.93;45.61
12897;BME280;6516;35.028;32.372;2023-02-23T12:42:03;100050.53;;;22.89;46.14
12897;BME280;6516;35.028;32.372;2023-02-23T12:44:38;100047.94;;;22.75;45.08
12897;BME280;6516;35.028;32.372;2023-02-23T12:47:22;100047.03;;;22.50;46.09
12897;BME280;6516;35.028;32.372;2023-02-23T12:49:58;100042.81;;;22.72;46.09
12897;BME280;6516;35.028;32.372;2023-02-23T12:52:35;100048.19;;;22.72;44.85
12897;BME280;6516;35.028;32.372;2023-02-23T12:55:08;100054.59;;;22.31;43.69
12897;BME280;6516;35.028;32.372;2023-02-23T12:57:39;100059.66;;;22.35;46.13
12897;BME280;6516;35.028;32.372;2023-02-23T13:00:34;100053.13;;;22.13;47.10
12897;BME280;6516;35.028;32.372;2023-02-23T13:03:36;100050.16;;;22.17;45.95
12897;BME280;6516;35.028;32.372;2023-02-23T13:06:32;100047.88;;;22.38;46.20
12897;BME280;6516;35.028;32.372;2023-02-23T13:09:16;100045.13;;;22.25;47.00
12897;BME280;6516;35.028;32.372;2023-02-23T13:12:01;100051.53;;;22.10;47.86
12897;BME280;6516;35.028;32.372;2023-02-23T13:14:48;100056.38;;;21.91;48.79
12897;BME280;6516;35.028;32.372;2023-02-23T13:17:35;100048.34;;;21.91;48.64
12897;BME280;6516;35.028;32.372;2023-02-23T13:20:13;100051.56;;;21.96;48.50
12897;BME280;6516;35.028;32.372;2023-02-23T13:22:49;100061.97;;;21.74;49.15
12897;BME280;6516;35.028;32.372;2023-02-23T13:25:26;100063.53;;;21.36;49.19
12897;BME280;6516;35.028;32.372;2023-02-23T13:27:59;100061.69;;;20.95;51.00
12897;BME280;6516;35.028;32.372;2023-02-23T13:30:29;100060.50;;;20.71;50.76
12897;BME280;6516;35.028;32.372;2023-02-23T13:33:12;100063.13;;;20.57;51.63
12897;BME280;6516;35.028;32.372;2023-02-23T13:35:44;100066.06;;;20.52;51.53
12897;BME280;6516;35.028;32.372;2023-02-23T13:38:18;100067.78;;;20.53;51.86
12897;BME280;6516;35.028;32.372;2023-02-23T13:40:52;100068.00;;;20.50;50.43